Time;durP1;ratioP1;P1;durP2;ratioP2;P2;SDS_P1;SDS_P2;PMS_P1;PMS_P2;Temp;Humidity;BMP_temperature;BMP_pressure;BME280_temperature;BME280_humidity;BME280_pressure;Samples;Min_cycle;Max_cycle;Signal;HPM_P1;HPM_P2
2022/12/12 00:01:47;;;;;;;22.65;11.93;;;0.40;99.90;;;;;;5110403;27;20047;-86
2022/12/12 00:04:12;;;;;;;23.40;12.73;;;0.90;99.90;;;;;;5100941;28;20042;-86
2022/12/12 00:06:38;;;;;;;19.38;11.82;;;0.50;99.90;;;;;;5099615;28;20123;-87
2022/12/12 00:09:04;;;;;;;23.60;12.13;;;0.50;99.90;;;;;;5091070;28;20039;-86
2022/12/12 00:11:30;;;;;;;23.33;11.88;;;0.40;99.90;;;;;;5090766;28;20473;-86
2022/12/12 00:13:56;;;;;;;20.55;11.65;;;0.50;99.90;;;;;;5106569;27;20050;-87
2022/12/12 00:16:23;;;;;;;22.17;12.10;;;0.50;99.90;;;;;;5104979;28;20058;-86
2022/12/12 00:18:49;;;;;;;19.88;11.30;;;0.40;99.90;;;;;;5104917;27;20122;-87
2022/12/12 00:21:21;;;;;;;21.38;11.07;;;0.50;99.90;;;;;;5108926;27;20130;-86
2022/12/12 00:23:47;;;;;;;20.13;11.00;;;0.40;99.90;;;;;;5123893;27;20044;-86
2022/12/12 00:26:22;;;;;;;21.50;11.27;;;0.40;99.90;;;;;;5097925;27;20353;-87
2022/12/12 00:28:48;;;;;;;19.27;12.00;;;0.40;99.90;;;;;;5093799;28;20051;-86
2022/12/12 00:31:14;;;;;;;20.10;11.77;;;0.40;99.90;;;;;;5087679;27;20066;-86
2022/12/12 00:33:40;;;;;;;18.60;10.25;;;0.30;99.90;;;;;;5099226;28;20112;-87
2022/12/12 00:36:06;;;;;;;22.63;11.43;;;0.50;99.90;;;;;;5107527;28;20180;-87
2022/12/12 00:38:32;;;;;;;19.08;11.50;;;0.50;99.90;;;;;;5073962;27;20047;-87
2022/12/12 00:40:59;;;;;;;21.27;12.20;;;0.40;99.90;;;;;;5106447;27;20043;-86
2022/12/12 00:43:26;;;;;;;22.10;11.57;;;0.40;99.90;;;;;;5099647;27;20067;-85
2022/12/12 00:45:52;;;;;;;19.95;10.88;;;0.30;99.90;;;;;;5104705;27;20105;-87
2022/12/12 00:48:18;;;;;;;21.80;12.00;;;1.80;99.90;;;;;;5100826;28;20127;-87
2022/12/12 00:50:44;;;;;;;21.17;11.57;;;0.40;99.90;;;;;;5090654;28;20040;-85
2022/12/12 00:53:10;;;;;;;22.58;12.32;;;0.30;99.90;;;;;;5104818;27;20039;-86
2022/12/12 00:55:36;;;;;;;22.75;11.05;;;0.40;99.90;;;;;;5090477;28;20058;-86
2022/12/12 00:58:01;;;;;;;21.65;11.73;;;0.40;99.90;;;;;;5089919;28;20039;-87
2022/12/12 01:00:27;;;;;;;23.10;12.25;;;0.50;99.90;;;;;;5124184;27;20130;-87
2022/12/12 01:02:56;;;;;;;21.80;11.82;;;0.50;99.90;;;;;;5105851;27;20512;-87
2022/12/12 01:05:22;;;;;;;21.83;11.63;;;0.50;99.90;;;;;;5100992;28;20044;-87
2022/12/12 01:07:51;;;;;;;19.38;11.13;;;0.50;99.90;;;;;;5092135;27;20379;-86
2022/12/12 01:10:17;;;;;;;20.65;11.25;;;0.30;99.90;;;;;;5090644;27;20053;-86
2022/12/12 01:12:42;;;;;;;22.67;12.02;;;0.30;99.90;;;;;;5096308;28;20036;-87
2022/12/12 01:15:09;;;;;;;19.95;11.23;;;0.00;99.90;;;;;;5088853;28;20040;-87
2022/12/12 01:17:36;;;;;;;19.85;10.93;;;0.40;99.90;;;;;;5088937;28;20044;-85
2022/12/12 01:20:16;;;;;;;18.10;10.40;;;0.30;99.90;;;;;;5076919;27;20103;-86
2022/12/12 01:22:42;;;;;;;20.85;11.10;;;1.10;99.90;;;;;;5105186;28;20043;-86
2022/12/12 01:25:10;;;;;;;18.40;10.57;;;0.40;99.90;;;;;;5090199;28;20066;-86
2022/12/12 01:27:35;;;;;;;19.48;10.95;;;0.40;99.90;;;;;;5121257;27;20771;-86
2022/12/12 01:30:01;;;;;;;21.92;11.13;;;0.40;99.90;;;;;;5082193;27;20054;-86
2022/12/12 01:32:27;;;;;;;19.50;11.38;;;0.30;99.90;;;;;;5126950;27;20435;-87
2022/12/12 01:34:53;;;;;;;20.02;11.15;;;0.30;99.90;;;;;;5107921;28;20481;-86
2022/12/12 01:37:19;;;;;;;18.15;10.45;;;0.40;99.90;;;;;;5109450;28;20055;-87
2022/12/12 01:39:44;;;;;;;20.65;11.43;;;0.40;99.90;;;;;;5091490;28;20080;-86
2022/12/12 01:42:17;;;;;;;18.13;10.63;;;0.40;99.90;;;;;;5089627;28;20039;-87
2022/12/12 01:44:46;;;;;;;20.50;11.18;;;0.40;99.90;;;;;;5106717;28;20123;-86
2022/12/12 01:47:13;;;;;;;19.42;10.65;;;0.40;99.90;;;;;;5089956;28;20128;-87
2022/12/12 01:49:43;;;;;;;19.70;10.88;;;0.40;99.90;;;;;;5090144;28;20051;-87
2022/12/12 01:52:12;;;;;;;20.50;10.55;;;0.40;99.90;;;;;;5090147;28;20577;-87
2022/12/12 01:54:44;;;;;;;19.80;11.00;;;0.40;99.90;;;;;;5090259;28;20090;-87
2022/12/12 01:57:13;;;;;;;19.35;10.88;;;0.40;99.90;;;;;;5088521;28;20176;-87
2022/12/12 01:59:39;;;;;;;19.67;10.93;;;0.40;99.90;;;;;;5089773;28;20039;-87
2022/12/12 02:02:06;;;;;;;18.33;10.25;;;0.40;99.90;;;;;;5090001;28;20039;-86
2022/12/12 02:04:32;;;;;;;19.77;10.10;;;0.40;99.90;;;;;;5089647;28;20083;-87
2022/12/12 02:06:57;;;;;;;20.33;12.10;;;0.40;99.90;;;;;;5073201;28;20055;-87
2022/12/12 02:09:25;;;;;;;22.17;11.45;;;0.40;99.90;;;;;;5073289;28;20131;-87
2022/12/12 02:11:53;;;;;;;17.08;10.25;;;0.40;99.90;;;;;;5107755;28;20074;-87
2022/12/12 02:14:30;;;;;;;17.27;10.18;;;0.40;99.90;;;;;;5108731;28;20070;-87
2022/12/12 02:17:02;;;;;;;20.52;10.52;;;0.40;99.90;;;;;;5088746;28;20039;-86
2022/12/12 02:19:33;;;;;;;18.35;10.90;;;0.30;99.90;;;;;;5108494;28;20062;-87
2022/12/12 02:22:05;;;;;;;19.08;10.55;;;0.40;99.90;;;;;;5078558;28;20083;-87
2022/12/12 02:25:14;;;;;;;19.60;10.03;;;0.30;99.90;;;;;;5095026;28;20130;-86
2022/12/12 02:28:13;;;;;;;17.15;9.40;;;0.40;99.90;;;;;;5095835;28;20481;-86
2022/12/12 02:30:47;;;;;;;17.92;9.98;;;0.40;99.90;;;;;;5109659;28;20449;-87
2022/12/12 02:33:37;;;;;;;21.38;10.65;;;0.20;99.90;;;;;;5107700;28;20043;-86
2022/12/12 02:36:26;;;;;;;18.70;10.75;;;0.40;99.90;;;;;;5105701;28;20084;-87
2022/12/12 02:39:11;;;;;;;18.70;10.60;;;0.40;99.90;;;;;;5095696;28;20054;-86
2022/12/12 02:41:46;;;;;;;20.08;10.40;;;0.30;99.90;;;;;;5076746;28;20051;-87
2022/12/12 02:44:38;;;;;;;17.92;10.80;;;0.30;99.90;;;;;;5092970;27;20088;-87
2022/12/12 02:47:17;;;;;;;15.53;9.73;;;-0.80;99.90;;;;;;5080723;28;20048;-86
2022/12/12 02:50:03;;;;;;;15.55;8.93;;;0.30;99.90;;;;;;5107908;27;20313;-87
2022/12/12 02:52:30;;;;;;;21.50;11.57;;;0.40;99.90;;;;;;5112441;27;20050;-87
2022/12/12 02:54:55;;;;;;;21.08;10.98;;;0.30;99.90;;;;;;5105813;28;20444;-87
2022/12/12 02:57:23;;;;;;;17.42;10.55;;;0.40;99.90;;;;;;5101948;27;20127;-87
2022/12/12 03:00:08;;;;;;;18.70;11.00;;;0.30;99.90;;;;;;5087766;28;20127;-86
2022/12/12 03:09:00;;;;;;;15.73;10.00;;;0.30;99.90;;;;;;5127669;27;20512;-87
2022/12/12 03:11:49;;;;;;;17.30;8.88;;;0.30;99.90;;;;;;5108345;27;20493;-87
2022/12/12 03:14:27;;;;;;;17.70;9.75;;;0.30;99.90;;;;;;5110357;27;20055;-86
2022/12/12 03:17:11;;;;;;;20.42;10.77;;;0.40;99.90;;;;;;5110125;27;20054;-86
2022/12/12 03:19:42;;;;;;;16.70;9.68;;;0.30;99.90;;;;;;5107502;27;20076;-86
2022/12/12 03:22:14;;;;;;;18.42;10.20;;;0.30;99.90;;;;;;5108618;27;20044;-87
2022/12/12 03:24:47;;;;;;;19.48;11.00;;;0.40;99.90;;;;;;5108955;27;20054;-87
2022/12/12 03:27:29;;;;;;;16.17;10.18;;;0.30;99.90;;;;;;5094706;28;20043;-87
2022/12/12 03:29:58;;;;;;;18.63;10.53;;;0.40;99.90;;;;;;5118738;27;20075;-87
2022/12/12 03:32:30;;;;;;;19.35;10.98;;;0.40;99.90;;;;;;5104791;27;20932;-86
2022/12/12 03:35:02;;;;;;;20.00;11.20;;;0.40;99.90;;;;;;5099254;27;20112;-87
2022/12/12 03:37:36;;;;;;;19.73;11.35;;;0.30;99.90;;;;;;5110688;27;20051;-86
2022/12/12 03:40:10;;;;;;;17.92;9.82;;;0.30;99.90;;;;;;5109760;27;20051;-86
2022/12/12 03:43:04;;;;;;;18.27;9.90;;;0.40;99.90;;;;;;5107454;27;20103;-87
2022/12/12 03:45:44;;;;;;;19.90;10.93;;;0.30;99.90;;;;;;5127358;27;20063;-87
2022/12/12 03:48:14;;;;;;;17.67;9.88;;;0.40;99.90;;;;;;5109422;27;20050;-86
2022/12/12 03:50:56;;;;;;;20.95;11.02;;;0.30;99.90;;;;;;5076074;27;20081;-85
2022/12/12 03:53:40;;;;;;;15.50;9.38;;;0.30;99.90;;;;;;5108331;28;20052;-86
2022/12/12 03:56:48;;;;;;;21.30;11.02;;;0.30;99.90;;;;;;5107140;28;20648;-86
2022/12/12 03:59:23;;;;;;;17.92;9.60;;;0.30;99.90;;;;;;5049446;28;20574;-86
2022/12/12 04:02:00;;;;;;;17.55;10.20;;;0.30;99.90;;;;;;5100267;27;20059;-86
2022/12/12 04:04:53;;;;;;;19.20;10.10;;;0.30;99.90;;;;;;5075594;28;20048;-86
2022/12/12 04:07:23;;;;;;;26.85;11.85;;;0.30;99.90;;;;;;5101152;28;20060;-85
2022/12/12 04:12:59;;;;;;;20.85;11.38;;;0.30;99.90;;;;;;5108741;27;20051;-87
2022/12/12 04:15:50;;;;;;;20.83;10.80;;;0.30;99.90;;;;;;5110740;27;20046;-86
2022/12/12 04:18:25;;;;;;;19.52;11.00;;;0.30;99.90;;;;;;5092441;27;20485;-87
2022/12/12 04:24:24;;;;;;;20.42;11.27;;;0.30;99.90;;;;;;5107071;28;20035;-86
2022/12/12 04:26:54;;;;;;;22.80;10.63;;;0.30;99.90;;;;;;5062355;27;20505;-86
2022/12/12 04:29:28;;;;;;;20.63;11.20;;;0.30;99.90;;;;;;5093742;27;20047;-86
2022/12/12 04:32:13;;;;;;;19.50;10.60;;;1.60;99.90;;;;;;5109863;27;20054;-86
2022/12/12 04:34:58;;;;;;;19.25;10.90;;;0.30;99.90;;;;;;5078896;28;20054;-87
2022/12/12 04:37:31;;;;;;;18.60;11.63;;;0.30;99.90;;;;;;5102604;27;20043;-85
2022/12/12 04:40:03;;;;;;;16.52;9.68;;;0.40;99.90;;;;;;5111961;27;20039;-86
2022/12/12 04:42:34;;;;;;;22.88;11.45;;;0.50;99.90;;;;;;5106954;27;20496;-87
2022/12/12 04:45:10;;;;;;;17.60;10.07;;;0.30;99.90;;;;;;5109614;27;20592;-86
2022/12/12 04:47:38;;;;;;;21.48;11.05;;;0.40;99.90;;;;;;5073481;28;20051;-87
2022/12/12 04:50:07;;;;;;;18.15;10.48;;;0.20;99.90;;;;;;5088464;28;20124;-86
2022/12/12 04:52:34;;;;;;;18.80;11.20;;;0.30;99.90;;;;;;5076884;28;20040;-87
2022/12/12 04:55:05;;;;;;;20.40;11.75;;;0.30;99.90;;;;;;5090108;28;20046;-86
2022/12/12 04:57:50;;;;;;;20.40;12.35;;;0.40;99.90;;;;;;5094073;27;20764;-87
2022/12/12 05:00:16;;;;;;;20.02;10.48;;;0.60;99.90;;;;;;5090296;27;20599;-86
2022/12/12 05:03:07;;;;;;;18.52;10.80;;;0.40;99.90;;;;;;5110002;27;20039;-86
2022/12/12 05:05:41;;;;;;;17.73;10.88;;;0.40;99.90;;;;;;5070184;28;20059;-86
2022/12/12 05:08:14;;;;;;;22.63;11.75;;;0.40;99.90;;;;;;5101525;27;20066;-85
2022/12/12 05:10:45;;;;;;;21.95;11.90;;;0.40;99.90;;;;;;5107061;27;20107;-86
2022/12/12 05:13:19;;;;;;;20.17;10.75;;;0.30;99.90;;;;;;5103670;28;20105;-85
2022/12/12 05:15:51;;;;;;;20.42;11.70;;;1.40;99.90;;;;;;5105921;28;20051;-85
2022/12/12 05:18:19;;;;;;;19.70;11.07;;;-0.10;99.90;;;;;;5090396;28;20047;-86
2022/12/12 05:20:45;;;;;;;17.90;11.40;;;0.30;99.90;;;;;;5090162;28;20040;-86
2022/12/12 05:23:11;;;;;;;20.73;12.05;;;0.10;99.90;;;;;;5101684;27;20102;-86
2022/12/12 05:25:36;;;;;;;21.67;11.32;;;0.40;99.90;;;;;;5095208;28;20466;-86
2022/12/12 05:28:02;;;;;;;20.83;11.10;;;0.30;99.90;;;;;;5083596;27;20096;-86
2022/12/12 05:30:27;;;;;;;19.02;10.80;;;0.30;99.90;;;;;;5085740;28;20052;-86
2022/12/12 05:32:53;;;;;;;20.25;11.30;;;0.30;99.90;;;;;;5109147;27;20043;-86
2022/12/12 05:35:19;;;;;;;19.02;11.02;;;0.40;99.90;;;;;;5108386;27;20427;-85
2022/12/12 05:37:45;;;;;;;23.13;12.95;;;0.30;99.90;;;;;;5091928;27;20039;-85
2022/12/12 05:40:12;;;;;;;19.48;11.43;;;0.30;99.90;;;;;;5106094;27;20529;-86
2022/12/12 05:42:38;;;;;;;17.80;11.05;;;0.30;99.90;;;;;;5105311;27;20439;-85
2022/12/12 05:45:06;;;;;;;20.20;10.80;;;0.30;99.90;;;;;;5100769;28;20062;-85
2022/12/12 05:47:35;;;;;;;22.17;11.15;;;0.30;99.90;;;;;;5108328;28;20504;-86
2022/12/12 05:50:00;;;;;;;19.98;11.10;;;0.30;99.90;;;;;;5109699;28;20386;-86
2022/12/12 05:52:26;;;;;;;20.75;11.43;;;0.40;99.90;;;;;;5099405;28;20124;-85
2022/12/12 05:54:52;;;;;;;19.08;10.82;;;0.30;99.90;;;;;;5109875;28;20497;-86
2022/12/12 05:57:18;;;;;;;21.83;12.15;;;0.30;99.90;;;;;;5108487;28;20047;-86
2022/12/12 05:59:45;;;;;;;21.88;12.25;;;0.20;99.90;;;;;;5085116;28;20040;-86
2022/12/12 06:02:11;;;;;;;18.67;10.77;;;0.30;99.90;;;;;;5093004;28;20046;-85
2022/12/12 06:04:37;;;;;;;24.67;13.63;;;0.30;99.90;;;;;;5077347;28;20416;-85
2022/12/12 06:07:02;;;;;;;23.70;12.35;;;1.40;99.90;;;;;;5086981;28;20417;-86
2022/12/12 06:09:28;;;;;;;18.95;10.50;;;0.30;99.90;;;;;;5099845;28;20036;-86
2022/12/12 06:11:54;;;;;;;20.85;11.05;;;0.20;99.90;;;;;;5094715;28;20056;-86
2022/12/12 06:14:19;;;;;;;20.70;10.80;;;1.20;99.90;;;;;;5086289;28;20159;-86
2022/12/12 06:16:45;;;;;;;22.80;11.48;;;0.30;99.90;;;;;;5098438;28;20051;-86
2022/12/12 06:19:10;;;;;;;19.17;10.82;;;0.30;99.90;;;;;;5104725;28;20150;-85
2022/12/12 06:21:37;;;;;;;19.13;10.98;;;0.20;99.90;;;;;;5105431;28;20051;-86
2022/12/12 06:24:05;;;;;;;18.77;10.85;;;0.20;99.90;;;;;;5101468;28;20094;-85
2022/12/12 06:26:31;;;;;;;17.90;11.63;;;0.30;99.90;;;;;;5105465;28;20043;-85
2022/12/12 06:28:56;;;;;;;19.55;11.82;;;0.20;99.90;;;;;;5103069;28;20510;-84
2022/12/12 06:31:23;;;;;;;28.98;12.35;;;0.30;99.90;;;;;;5110592;28;20171;-83
2022/12/12 06:33:48;;;;;;;22.40;11.93;;;0.30;99.90;;;;;;5093735;28;20040;-86
2022/12/12 06:36:22;;;;;;;19.25;10.48;;;0.30;99.90;;;;;;5097767;28;20051;-85
2022/12/12 06:38:49;;;;;;;19.75;11.45;;;0.20;99.90;;;;;;5089891;28;20066;-86
2022/12/12 06:41:15;;;;;;;20.05;11.60;;;0.20;99.90;;;;;;5084658;28;20044;-86
2022/12/12 06:43:41;;;;;;;20.08;10.82;;;0.50;99.90;;;;;;5089132;28;20036;-86
2022/12/12 06:46:12;;;;;;;21.48;11.15;;;0.40;99.90;;;;;;5091949;28;20126;-86
2022/12/12 06:48:38;;;;;;;16.95;10.43;;;0.20;99.90;;;;;;5104611;28;20043;-85
2022/12/12 06:51:05;;;;;;;20.67;10.98;;;0.30;99.90;;;;;;5089446;28;20097;-86
2022/12/12 06:53:31;;;;;;;20.58;12.00;;;0.30;99.90;;;;;;5089836;28;20481;-86
2022/12/12 06:55:57;;;;;;;20.75;11.57;;;0.40;99.90;;;;;;5089256;28;20044;-86
2022/12/12 06:58:22;;;;;;;21.80;11.32;;;0.30;99.90;;;;;;5088964;28;20036;-86
2022/12/12 07:00:54;;;;;;;19.92;11.50;;;0.30;99.90;;;;;;5089491;28;20036;-86
2022/12/12 07:03:19;;;;;;;19.58;10.88;;;0.10;99.90;;;;;;5090602;28;20057;-85
2022/12/12 07:05:46;;;;;;;22.67;12.45;;;0.10;99.90;;;;;;5072464;28;20040;-85
2022/12/12 07:08:13;;;;;;;21.35;11.63;;;1.90;99.90;;;;;;5094870;28;20046;-86
2022/12/12 07:10:39;;;;;;;19.55;11.77;;;0.20;99.90;;;;;;5109805;28;20035;-87
2022/12/12 07:13:04;;;;;;;19.35;11.45;;;0.10;99.90;;;;;;5109412;28;20528;-87
2022/12/12 07:15:30;;;;;;;20.60;11.65;;;0.20;99.90;;;;;;5108491;28;20059;-86
2022/12/12 07:17:56;;;;;;;22.77;11.93;;;0.20;99.90;;;;;;5092462;28;20054;-85
2022/12/12 07:20:21;;;;;;;19.52;11.60;;;0.20;99.90;;;;;;5071386;28;20726;-85
2022/12/12 07:22:50;;;;;;;20.50;11.70;;;0.00;99.90;;;;;;5070197;28;20234;-85
2022/12/12 07:25:15;;;;;;;20.73;11.02;;;0.20;99.90;;;;;;5081651;28;20044;-85
2022/12/12 07:27:41;;;;;;;19.83;11.50;;;0.50;99.90;;;;;;5075172;28;20051;-84
2022/12/12 07:30:07;;;;;;;16.88;10.48;;;0.30;99.90;;;;;;5090244;28;20043;-84
2022/12/12 07:32:33;;;;;;;19.20;11.18;;;0.30;99.90;;;;;;5110267;28;20044;-86
2022/12/12 07:35:01;;;;;;;22.52;11.50;;;0.30;99.90;;;;;;5098064;28;20100;-85
2022/12/12 07:37:27;;;;;;;18.25;11.05;;;0.30;99.90;;;;;;5088432;28;20059;-85
2022/12/12 07:39:53;;;;;;;21.35;12.00;;;0.20;99.90;;;;;;5088728;28;20791;-84
2022/12/12 07:42:18;;;;;;;20.40;11.27;;;0.30;99.90;;;;;;5071252;28;20044;-86
2022/12/12 07:44:44;;;;;;;23.02;12.20;;;0.20;99.90;;;;;;5088544;28;20612;-84
2022/12/12 07:47:10;;;;;;;21.52;12.27;;;0.30;99.90;;;;;;5088815;28;20099;-85
2022/12/12 07:49:36;;;;;;;19.75;11.25;;;0.30;99.90;;;;;;5087525;28;20058;-86
2022/12/12 07:52:02;;;;;;;21.98;11.23;;;0.20;99.90;;;;;;5088377;28;20144;-86
2022/12/12 07:54:28;;;;;;;20.33;11.07;;;0.20;99.90;;;;;;5088546;28;20512;-87
2022/12/12 07:56:53;;;;;;;18.90;11.95;;;0.00;99.90;;;;;;5084009;28;20074;-87
2022/12/12 07:59:19;;;;;;;18.88;11.50;;;0.20;99.90;;;;;;5109120;28;20405;-87
2022/12/12 08:01:44;;;;;;;20.52;12.23;;;0.30;99.90;;;;;;5108949;28;20039;-86
2022/12/12 08:04:10;;;;;;;20.30;11.40;;;0.20;99.90;;;;;;5079440;28;20576;-85
2022/12/12 08:06:36;;;;;;;19.38;11.65;;;0.00;99.90;;;;;;5087863;28;20380;-83
2022/12/12 08:09:02;;;;;;;19.15;11.98;;;0.20;99.90;;;;;;5085886;28;20071;-84
2022/12/12 08:11:28;;;;;;;17.20;11.27;;;0.30;99.90;;;;;;5087548;28;20596;-84
2022/12/12 08:13:53;;;;;;;20.50;11.50;;;0.30;99.90;;;;;;5088311;28;20099;-84
2022/12/12 08:16:22;;;;;;;19.35;9.95;;;0.30;99.90;;;;;;5087862;28;20044;-84
2022/12/12 08:18:51;;;;;;;19.35;11.55;;;0.30;99.90;;;;;;5086333;28;20090;-83
2022/12/12 08:21:18;;;;;;;20.50;11.98;;;0.30;99.90;;;;;;5087650;28;20052;-83
2022/12/12 08:23:43;;;;;;;21.15;11.75;;;0.40;99.90;;;;;;5070808;28;20040;-84
2022/12/12 08:26:11;;;;;;;20.25;11.25;;;0.30;99.90;;;;;;5087577;28;20055;-84
2022/12/12 08:28:37;;;;;;;19.20;10.60;;;0.40;99.90;;;;;;5088023;28;20131;-82
2022/12/12 08:31:03;;;;;;;19.75;11.88;;;0.40;99.90;;;;;;5087216;28;20123;-83
2022/12/12 08:33:29;;;;;;;23.67;11.90;;;0.40;99.90;;;;;;5074830;28;20823;-83
2022/12/12 08:35:54;;;;;;;21.17;11.48;;;0.40;99.90;;;;;;5067019;28;20144;-84
2022/12/12 08:38:21;;;;;;;20.42;11.82;;;0.50;99.90;;;;;;5050644;28;20054;-84
2022/12/12 08:40:47;;;;;;;20.35;11.23;;;0.50;99.90;;;;;;5067774;28;20114;-83
2022/12/12 08:43:12;;;;;;;21.65;12.45;;;0.50;99.90;;;;;;5049708;28;20472;-85
2022/12/12 08:45:39;;;;;;;23.83;12.90;;;0.60;99.90;;;;;;5050616;28;20110;-83
2022/12/12 08:48:06;;;;;;;24.08;13.10;;;0.50;99.90;;;;;;5076693;28;20043;-83
2022/12/12 08:50:32;;;;;;;22.95;12.75;;;0.60;99.90;;;;;;5086462;28;20051;-83
2022/12/12 08:52:58;;;;;;;20.67;13.23;;;0.60;99.90;;;;;;5087593;28;20073;-83
2022/12/12 08:55:24;;;;;;;21.38;12.45;;;0.60;99.90;;;;;;5087227;28;20143;-83
2022/12/12 08:57:49;;;;;;;22.35;11.93;;;0.60;99.90;;;;;;5070323;28;20044;-83
2022/12/12 09:00:16;;;;;;;20.38;11.77;;;0.60;99.90;;;;;;5087210;28;20051;-83
2022/12/12 09:02:42;;;;;;;24.02;12.20;;;0.70;99.90;;;;;;5086929;28;20044;-83
2022/12/12 09:05:08;;;;;;;16.95;10.68;;;0.70;99.90;;;;;;5086462;28;20044;-83
2022/12/12 09:07:34;;;;;;;24.33;12.15;;;0.60;99.90;;;;;;5086934;28;20957;-82
2022/12/12 09:09:59;;;;;;;21.02;11.73;;;0.80;99.90;;;;;;5089429;28;20442;-83
2022/12/12 09:12:25;;;;;;;19.58;11.88;;;0.80;99.90;;;;;;5084746;28;20052;-83
2022/12/12 09:14:50;;;;;;;19.20;12.15;;;0.80;99.90;;;;;;5066231;28;20044;-85
2022/12/12 09:17:16;;;;;;;16.65;10.68;;;0.80;99.90;;;;;;5066957;28;20056;-85
2022/12/12 09:19:42;;;;;;;21.35;14.05;;;0.90;99.90;;;;;;5067507;28;20052;-86
2022/12/12 09:22:08;;;;;;;20.13;13.43;;;1.00;99.90;;;;;;5063907;28;20455;-85
2022/12/12 09:24:34;;;;;;;20.48;12.02;;;1.20;99.90;;;;;;5048610;28;20049;-84
2022/12/12 09:27:00;;;;;;;19.52;12.38;;;1.10;99.90;;;;;;5069191;28;20049;-86
2022/12/12 09:29:26;;;;;;;20.50;12.57;;;1.20;99.90;;;;;;5068667;28;20047;-86
2022/12/12 09:31:51;;;;;;;20.48;13.32;;;1.10;99.90;;;;;;5066501;28;20083;-84
2022/12/12 09:34:17;;;;;;;20.55;13.23;;;1.20;99.90;;;;;;5050941;28;20078;-85
2022/12/12 09:36:43;;;;;;;19.58;13.07;;;1.10;99.90;;;;;;5067834;28;20044;-85
2022/12/12 09:39:08;;;;;;;20.88;13.77;;;1.20;99.90;;;;;;5066349;28;20440;-85
2022/12/12 09:41:34;;;;;;;20.23;12.27;;;1.40;99.90;;;;;;5065601;28;20060;-85
2022/12/12 09:44:02;;;;;;;17.40;10.43;;;1.20;99.90;;;;;;5067100;28;20040;-85
2022/12/12 09:46:42;;;;;;;20.02;11.98;;;1.20;99.90;;;;;;5065977;28;20056;-83
2022/12/12 09:49:15;;;;;;;20.45;12.55;;;1.30;99.90;;;;;;5067386;28;20589;-84
2022/12/12 09:51:44;;;;;;;21.85;11.70;;;1.30;99.90;;;;;;5071489;28;20140;-84
2022/12/12 09:54:13;;;;;;;21.95;12.70;;;2.20;99.90;;;;;;5068664;28;20077;-85
2022/12/12 09:57:06;;;;;;;20.33;12.65;;;1.40;99.90;;;;;;5072358;28;20053;-83
2022/12/12 09:59:34;;;;;;;16.95;11.82;;;1.50;99.90;;;;;;5071599;28;20629;-82
2022/12/12 10:02:37;;;;;;;20.27;12.30;;;1.50;99.90;;;;;;5072630;28;20056;-82
2022/12/12 10:05:24;;;;;;;;;;;1.50;99.90;;;;;;5072243;28;20044;-82
2022/12/12 10:08:00;;;;;;;18.65;11.50;;;1.60;99.90;;;;;;5072755;28;20436;-82
2022/12/12 10:10:41;;;;;;;22.50;13.93;;;1.50;99.90;;;;;;5054702;28;20064;-83
2022/12/12 10:13:14;;;;;;;22.92;13.77;;;1.70;99.90;;;;;;5109907;28;20059;-82
2022/12/12 10:15:44;;;;;;;24.10;14.65;;;2.00;99.90;;;;;;5077835;28;20409;-82
2022/12/12 10:18:44;;;;;;;24.98;15.23;;;1.30;99.90;;;;;;5111066;27;20039;-83
2022/12/12 10:21:17;;;;;;;28.67;15.60;;;1.40;99.90;;;;;;5124655;27;20123;-82
2022/12/12 10:23:47;;;;;;;26.23;15.98;;;1.40;99.90;;;;;;5093753;28;20059;-82
2022/12/12 10:26:20;;;;;;;28.25;16.40;;;1.40;99.90;;;;;;5107489;28;20051;-83
2022/12/12 10:28:52;;;;;;;33.08;16.23;;;1.40;99.90;;;;;;5094268;28;20528;-82
2022/12/12 10:31:27;;;;;;;27.37;15.20;;;1.40;99.90;;;;;;5094329;28;20093;-81
2022/12/12 10:34:16;;;;;;;31.75;17.02;;;1.40;99.90;;;;;;5094156;28;20044;-82
2022/12/12 10:37:15;;;;;;;28.27;16.77;;;1.50;99.90;;;;;;5094420;28;20040;-82
2022/12/12 10:40:35;;;;;;;28.63;17.02;;;1.40;99.90;;;;;;5094400;28;20089;-81
2022/12/12 10:43:11;;;;;;;30.15;15.75;;;1.50;99.90;;;;;;5028771;28;20121;-81
2022/12/12 10:46:08;;;;;;;26.45;15.18;;;1.50;99.90;;;;;;5109993;28;20158;-81
2022/12/12 10:48:34;;;;;;;27.55;14.88;;;1.60;99.90;;;;;;5112256;28;20056;-81
2022/12/12 10:51:02;;;;;;;26.10;15.85;;;1.60;99.90;;;;;;5094087;28;20043;-81
2022/12/12 10:53:30;;;;;;;28.13;16.08;;;1.60;99.90;;;;;;5111111;28;20044;-81
2022/12/12 10:56:17;;;;;;;30.60;17.13;;;2.20;99.90;;;;;;5093744;28;20055;-81
2022/12/12 10:58:50;;;;;;;27.15;15.30;;;1.60;99.90;;;;;;5073783;28;20443;-81
2022/12/12 11:01:23;;;;;;;32.08;16.85;;;1.60;99.90;;;;;;5073273;28;20158;-81
2022/12/12 11:03:51;;;;;;;26.65;15.23;;;1.60;99.90;;;;;;5091841;28;20056;-81
2022/12/12 11:06:27;;;;;;;28.92;15.65;;;1.70;99.90;;;;;;5072935;28;20052;-81
2022/12/12 11:08:59;;;;;;;29.00;15.57;;;1.70;99.90;;;;;;5073217;28;20088;-81
2022/12/12 11:11:27;;;;;;;28.30;15.32;;;1.70;99.90;;;;;;5059293;28;20078;-81
2022/12/12 11:14:01;;;;;;;30.23;17.33;;;1.70;99.90;;;;;;5093364;28;20481;-81
2022/12/12 11:16:42;;;;;;;27.30;16.42;;;1.70;99.90;;;;;;5109430;28;20055;-82
2022/12/12 11:19:18;;;;;;;28.63;16.63;;;1.90;99.90;;;;;;5088516;27;20055;-83
2022/12/12 11:21:45;;;;;;;28.73;16.63;;;1.80;99.90;;;;;;5102341;27;20051;-82
2022/12/12 11:24:31;;;;;;;31.25;17.15;;;1.90;99.90;;;;;;5098134;27;20067;-82
2022/12/12 11:27:03;;;;;;;29.65;15.82;;;1.90;99.90;;;;;;5109181;27;20047;-82
2022/12/12 11:29:43;;;;;;;32.15;17.98;;;1.80;99.90;;;;;;5113324;27;20058;-82
2022/12/12 11:32:19;;;;;;;30.45;17.50;;;1.90;99.90;;;;;;5113342;27;20046;-82
2022/12/12 11:34:57;;;;;;;32.22;18.23;;;1.80;99.90;;;;;;5131671;27;20039;-82
2022/12/12 11:37:31;;;;;;;31.30;17.48;;;1.90;99.90;;;;;;5113327;27;20047;-82
2022/12/12 11:39:57;;;;;;;31.15;18.02;;;1.90;99.90;;;;;;5083665;28;20048;-82
2022/12/12 11:42:29;;;;;;;31.35;17.85;;;1.90;99.90;;;;;;5090418;28;20081;-82
2022/12/12 11:44:59;;;;;;;34.08;17.40;;;2.00;99.90;;;;;;5087984;27;20043;-83
2022/12/12 11:47:39;;;;;;;27.30;16.38;;;2.00;99.90;;;;;;5106110;27;20491;-82
2022/12/12 11:50:26;;;;;;;30.05;17.73;;;2.00;99.90;;;;;;5101979;28;20040;-82
2022/12/12 11:52:59;;;;;;;29.52;17.55;;;2.00;99.90;;;;;;5081171;28;20419;-82
2022/12/12 11:55:43;;;;;;;31.75;18.10;;;2.00;99.90;;;;;;5074391;28;20047;-82
2022/12/12 11:58:14;;;;;;;29.95;18.00;;;2.00;99.90;;;;;;5108491;28;20114;-82
2022/12/12 12:00:54;;;;;;;28.70;17.48;;;2.00;99.90;;;;;;5090414;28;20050;-83
2022/12/12 12:03:26;;;;;;;28.50;16.48;;;2.10;99.90;;;;;;5092790;28;20047;-82
2022/12/12 12:06:16;;;;;;;31.05;18.10;;;2.10;99.90;;;;;;5091489;28;20039;-83
2022/12/12 12:09:10;;;;;;;27.73;17.38;;;2.10;99.90;;;;;;5095689;27;20087;-82
2022/12/12 12:11:44;;;;;;;32.92;17.73;;;2.10;99.90;;;;;;5103698;27;20058;-83
2022/12/12 12:14:28;;;;;;;28.45;18.20;;;2.00;99.90;;;;;;5109225;27;20055;-83
2022/12/12 12:16:59;;;;;;;26.70;16.80;;;2.00;99.90;;;;;;5109314;27;20421;-83
2022/12/12 12:19:34;;;;;;;31.05;18.05;;;2.00;99.90;;;;;;5096521;28;20048;-82
2022/12/12 12:22:34;;;;;;;30.63;16.95;;;2.00;99.90;;;;;;5089999;28;20595;-83
2022/12/12 12:25:21;;;;;;;33.83;17.92;;;2.00;99.90;;;;;;5090875;28;20150;-84
2022/12/12 12:28:29;;;;;;;30.95;18.58;;;2.00;99.90;;;;;;5073673;28;20051;-83
2022/12/12 12:31:20;;;;;;;31.98;18.38;;;2.10;99.90;;;;;;5109360;28;20592;-83
2022/12/12 12:33:56;;;;;;;33.30;19.42;;;2.20;99.90;;;;;;5088988;28;20051;-83
2022/12/12 12:36:43;;;;;;;32.60;18.45;;;2.10;99.90;;;;;;5118862;27;20135;-83
2022/12/12 12:39:25;;;;;;;30.65;17.17;;;1.90;99.90;;;;;;5111693;27;20047;-83
2022/12/12 12:42:15;;;;;;;30.00;17.33;;;2.00;99.90;;;;;;5110962;27;20100;-83
2022/12/12 12:44:48;;;;;;;29.75;17.33;;;2.10;99.90;;;;;;5094442;28;20054;-83
2022/12/12 12:47:39;;;;;;;31.27;17.67;;;2.00;99.90;;;;;;5091178;28;20059;-83
2022/12/12 12:50:16;;;;;;;33.80;17.98;;;1.90;99.90;;;;;;5090719;28;20052;-82
2022/12/12 12:53:11;;;;;;;31.05;17.77;;;2.00;99.90;;;;;;5089969;28;20179;-82
2022/12/12 12:55:43;;;;;;;31.42;17.98;;;2.00;99.90;;;;;;5072626;28;20056;-83
2022/12/12 12:58:20;;;;;;;32.03;18.08;;;2.00;99.90;;;;;;5070361;28;20117;-83
2022/12/12 13:00:58;;;;;;;34.80;18.98;;;2.00;99.90;;;;;;5102806;27;20051;-83
2022/12/12 13:03:30;;;;;;;28.08;17.02;;;2.00;99.90;;;;;;5110745;27;20043;-83
2022/12/12 13:06:00;;;;;;;31.83;18.33;;;2.00;99.90;;;;;;5110709;27;20039;-83
2022/12/12 13:08:49;;;;;;;29.80;17.83;;;2.10;99.90;;;;;;5110725;27;20043;-83
2022/12/12 13:11:25;;;;;;;32.50;18.13;;;2.10;99.90;;;;;;5110307;27;20043;-83
2022/12/12 13:13:53;;;;;;;30.00;17.92;;;2.00;99.90;;;;;;5111074;27;20043;-83
2022/12/12 13:16:23;;;;;;;30.60;17.80;;;2.00;99.90;;;;;;5100993;28;20197;-83